sensor_id;sensor_type;location;lat;lon;timestamp;pressure;altitude;pressure_sealevel;temperature;humidity
57086;BME280;42964;42.910;23.792;2023-04-25T00:01:32;96890.00;;;11.89;99.32
57086;BME280;42964;42.910;23.792;2023-04-25T00:06:34;96876.91;;;11.95;98.45
57086;BME280;42964;42.910;23.792;2023-04-25T00:11:34;96881.16;;;11.98;96.62
57086;BME280;42964;42.910;23.792;2023-04-25T00:16:33;96877.75;;;11.96;96.10
57086;BME280;42964;42.910;23.792;2023-04-25T00:21:33;96877.72;;;11.97;95.89
57086;BME280;42964;42.910;23.792;2023-04-25T00:26:33;96870.88;;;11.93;95.07
57086;BME280;42964;42.910;23.792;2023-04-25T00:31:33;96875.13;;;11.97;92.93
57086;BME280;42964;42.910;23.792;2023-04-25T00:36:32;96849.16;;;11.96;92.59
57086;BME280;42964;42.910;23.792;2023-04-25T00:41:31;96837.91;;;11.94;92.12
57086;BME280;42964;42.910;23.792;2023-04-25T00:46:30;96814.78;;;11.81;91.79
57086;BME280;42964;42.910;23.792;2023-04-25T00:51:30;96802.81;;;11.74;90.56
57086;BME280;42964;42.910;23.792;2023-04-25T00:56:29;96769.97;;;11.70;89.87
57086;BME280;42964;42.910;23.792;2023-04-25T01:01:29;96762.25;;;11.65;89.00
57086;BME280;42964;42.910;23.792;2023-04-25T01:06:28;96754.50;;;11.64;87.79
57086;BME280;42964;42.910;23.792;2023-04-25T01:11:27;96752.53;;;11.75;88.48
57086;BME280;42964;42.910;23.792;2023-04-25T01:16:26;96755.78;;;11.85;86.23
57086;BME280;42964;42.910;23.792;2023-04-25T01:21:25;96762.53;;;11.94;86.37
57086;BME280;42964;42.910;23.792;2023-04-25T01:26:26;96769.28;;;12.01;87.07
57086;BME280;42964;42.910;23.792;2023-04-25T01:31:26;96781.34;;;12.05;85.26
57086;BME280;42964;42.910;23.792;2023-04-25T01:36:25;96762.44;;;11.97;83.19
57086;BME280;42964;42.910;23.792;2023-04-25T01:41:25;96784.69;;;12.10;82.59
57086;BME280;42964;42.910;23.792;2023-04-25T01:46:24;96780.84;;;12.26;84.13
57086;BME280;42964;42.910;23.792;2023-04-25T01:51:23;96776.50;;;12.27;82.91
57086;BME280;42964;42.910;23.792;2023-04-25T01:56:22;96765.78;;;12.41;84.24
57086;BME280;42964;42.910;23.792;2023-04-25T02:01:21;96765.97;;;12.33;83.66
57086;BME280;42964;42.910;23.792;2023-04-25T02:06:20;96749.75;;;12.20;83.05
57086;BME280;42964;42.910;23.792;2023-04-25T02:11:19;96754.63;;;11.97;82.15
57086;BME280;42964;42.910;23.792;2023-04-25T02:16:18;96752.25;;;11.87;82.97
57086;BME280;42964;42.910;23.792;2023-04-25T02:21:17;96747.03;;;11.87;82.27
57086;BME280;42964;42.910;23.792;2023-04-25T02:26:16;96747.00;;;11.91;82.73
57086;BME280;42964;42.910;23.792;2023-04-25T02:31:15;96740.22;;;11.83;82.74
57086;BME280;42964;42.910;23.792;2023-04-25T02:36:14;96620.63;;;11.07;83.07
57086;BME280;42964;42.910;23.792;2023-04-25T02:41:13;96748.84;;;11.85;82.74
57086;BME280;42964;42.910;23.792;2023-04-25T02:46:12;96745.28;;;11.89;82.01
57086;BME280;42964;42.910;23.792;2023-04-25T02:51:11;96742.00;;;11.81;83.07
57086;BME280;42964;42.910;23.792;2023-04-25T02:56:10;96737.84;;;11.73;82.75
57086;BME280;42964;42.910;23.792;2023-04-25T03:01:09;96742.84;;;11.41;82.60
57086;BME280;42964;42.910;23.792;2023-04-25T03:06:08;96728.94;;;11.45;81.97
57086;BME280;42964;42.910;23.792;2023-04-25T03:11:07;96736.00;;;11.39;81.05
57086;BME280;42964;42.910;23.792;2023-04-25T03:16:06;96724.28;;;11.18;82.29
57086;BME280;42964;42.910;23.792;2023-04-25T03:21:05;96730.16;;;11.26;82.49
57086;BME280;42964;42.910;23.792;2023-04-25T03:26:04;96726.13;;;11.13;82.68
57086;BME280;42964;42.910;23.792;2023-04-25T03:31:03;96730.50;;;11.11;83.20
57086;BME280;42964;42.910;23.792;2023-04-25T03:36:02;96738.28;;;11.11;83.76
57086;BME280;42964;42.910;23.792;2023-04-25T03:41:01;96731.53;;;11.00;84.14
57086;BME280;42964;42.910;23.792;2023-04-25T03:46:00;96740.28;;;10.96;85.25
57086;BME280;42964;42.910;23.792;2023-04-25T03:50:59;96743.75;;;10.95;84.63
57086;BME280;42964;42.910;23.792;2023-04-25T03:55:58;96732.63;;;10.89;85.33
57086;BME280;42964;42.910;23.792;2023-04-25T04:00:57;96741.16;;;10.94;84.84
57086;BME280;42964;42.910;23.792;2023-04-25T04:05:56;96745.81;;;10.75;85.99
57086;BME280;42964;42.910;23.792;2023-04-25T04:10:59;96709.88;;;10.55;86.05
57086;BME280;42964;42.910;23.792;2023-04-25T04:15:58;96740.47;;;10.84;86.70
57086;BME280;42964;42.910;23.792;2023-04-25T04:20:57;96725.88;;;10.78;87.55
57086;BME280;42964;42.910;23.792;2023-04-25T04:25:56;96743.50;;;11.09;86.77
57086;BME280;42964;42.910;23.792;2023-04-25T04:30:55;96749.44;;;11.16;86.54
57086;BME280;42964;42.910;23.792;2023-04-25T04:35:54;96757.63;;;11.38;86.58
57086;BME280;42964;42.910;23.792;2023-04-25T04:40:54;96759.66;;;11.67;86.35
57086;BME280;42964;42.910;23.792;2023-04-25T04:45:53;96766.34;;;11.77;83.95
57086;BME280;42964;42.910;23.792;2023-04-25T04:50:54;96765.34;;;11.83;85.31
57086;BME280;42964;42.910;23.792;2023-04-25T04:55:54;96745.88;;;12.01;84.90
57086;BME280;42964;42.910;23.792;2023-04-25T05:00:53;96759.09;;;12.30;83.76
57086;BME280;42964;42.910;23.792;2023-04-25T05:05:51;96752.66;;;12.47;83.56
57086;BME280;42964;42.910;23.792;2023-04-25T05:10:50;96744.09;;;12.76;82.51
57086;BME280;42964;42.910;23.792;2023-04-25T05:15:49;96746.06;;;13.01;82.40
57086;BME280;42964;42.910;23.792;2023-04-25T05:20:48;96739.22;;;13.28;80.48
57086;BME280;42964;42.910;23.792;2023-04-25T05:25:47;96738.06;;;13.69;81.18
57086;BME280;42964;42.910;23.792;2023-04-25T05:30:46;96741.81;;;14.17;77.01
57086;BME280;42964;42.910;23.792;2023-04-25T05:35:44;96745.75;;;14.30;74.57
57086;BME280;42964;42.910;23.792;2023-04-25T05:40:43;96747.19;;;14.40;73.11
57086;BME280;42964;42.910;23.792;2023-04-25T05:45:42;96750.41;;;14.20;74.90
57086;BME280;42964;42.910;23.792;2023-04-25T05:50:41;96742.22;;;14.05;73.67
57086;BME280;42964;42.910;23.792;2023-04-25T05:55:40;96734.13;;;13.84;74.82
57086;BME280;42964;42.910;23.792;2023-04-25T06:00:39;96741.63;;;13.67;74.92
57086;BME280;42964;42.910;23.792;2023-04-25T06:05:41;96737.69;;;14.10;75.87
57086;BME280;42964;42.910;23.792;2023-04-25T06:10:40;96724.88;;;14.57;72.76
57086;BME280;42964;42.910;23.792;2023-04-25T06:15:39;96734.69;;;14.77;70.86
57086;BME280;42964;42.910;23.792;2023-04-25T06:20:38;96711.78;;;14.85;69.00
57086;BME280;42964;42.910;23.792;2023-04-25T06:25:37;96749.66;;;15.22;67.84
57086;BME280;42964;42.910;23.792;2023-04-25T06:30:36;96741.78;;;15.47;69.20
57086;BME280;42964;42.910;23.792;2023-04-25T06:35:35;96757.63;;;16.13;68.72
57086;BME280;42964;42.910;23.792;2023-04-25T06:40:34;96739.22;;;16.59;68.74
57086;BME280;42964;42.910;23.792;2023-04-25T06:45:33;96735.34;;;17.10;66.75
57086;BME280;42964;42.910;23.792;2023-04-25T06:50:32;96744.75;;;17.34;61.59
57086;BME280;42964;42.910;23.792;2023-04-25T06:55:32;96747.97;;;17.60;56.96
57086;BME280;42964;42.910;23.792;2023-04-25T07:00:31;96701.38;;;17.46;57.80
57086;BME280;42964;42.910;23.792;2023-04-25T07:05:30;96746.34;;;17.58;54.82
57086;BME280;42964;42.910;23.792;2023-04-25T07:10:29;96751.44;;;17.81;55.36
57086;BME280;42964;42.910;23.792;2023-04-25T07:15:28;96744.69;;;18.13;52.83
57086;BME280;42964;42.910;23.792;2023-04-25T07:20:27;96705.34;;;18.48;51.06
57086;BME280;42964;42.910;23.792;2023-04-25T07:25:26;96730.50;;;18.71;48.73
57086;BME280;42964;42.910;23.792;2023-04-25T07:30:25;96731.50;;;18.69;46.52
57086;BME280;42964;42.910;23.792;2023-04-25T07:35:24;96739.06;;;18.57;48.25
57086;BME280;42964;42.910;23.792;2023-04-25T07:40:23;96747.44;;;18.29;48.61
57086;BME280;42964;42.910;23.792;2023-04-25T07:45:22;96743.09;;;17.71;48.45
57086;BME280;42964;42.910;23.792;2023-04-25T07:50:22;96734.25;;;17.34;51.46
57086;BME280;42964;42.910;23.792;2023-04-25T07:55:21;96736.84;;;17.55;49.42
57086;BME280;42964;42.910;23.792;2023-04-25T08:00:20;96743.97;;;17.91;51.48
57086;BME280;42964;42.910;23.792;2023-04-25T08:05:19;96730.88;;;18.27;47.60
57086;BME280;42964;42.910;23.792;2023-04-25T08:10:18;96747.56;;;18.63;46.91
57086;BME280;42964;42.910;23.792;2023-04-25T08:15:17;96759.66;;;18.48;44.90
57086;BME280;42964;42.910;23.792;2023-04-25T08:20:16;96726.72;;;18.40;47.33
57086;BME280;42964;42.910;23.792;2023-04-25T08:25:15;96742.66;;;18.74;45.28
57086;BME280;42964;42.910;23.792;2023-04-25T08:30:14;96747.78;;;18.03;45.39
57086;BME280;42964;42.910;23.792;2023-04-25T08:35:13;96747.19;;;17.58;48.17
57086;BME280;42964;42.910;23.792;2023-04-25T08:40:14;96709.13;;;17.10;48.31
57086;BME280;42964;42.910;23.792;2023-04-25T08:45:13;96744.25;;;17.26;48.30
57086;BME280;42964;42.910;23.792;2023-04-25T08:50:12;96723.91;;;17.31;49.05
57086;BME280;42964;42.910;23.792;2023-04-25T08:55:12;96736.88;;;17.34;47.62
57086;BME280;42964;42.910;23.792;2023-04-25T09:00:12;96750.63;;;17.40;48.44
57086;BME280;42964;42.910;23.792;2023-04-25T09:05:13;96749.03;;;17.75;47.03
57086;BME280;42964;42.910;23.792;2023-04-25T09:10:12;96732.22;;;18.17;45.50
57086;BME280;42964;42.910;23.792;2023-04-25T09:15:12;96733.31;;;18.49;44.79
57086;BME280;42964;42.910;23.792;2023-04-25T09:20:13;96718.66;;;18.80;44.61
57086;BME280;42964;42.910;23.792;2023-04-25T09:25:12;96708.63;;;18.71;42.20
57086;BME280;42964;42.910;23.792;2023-04-25T09:30:15;96712.88;;;18.91;43.61
57086;BME280;42964;42.910;23.792;2023-04-25T09:35:26;96691.28;;;19.01;44.19
57086;BME280;42964;42.910;23.792;2023-04-25T09:40:25;96713.06;;;19.21;43.35
57086;BME280;42964;42.910;23.792;2023-04-25T09:45:24;96715.66;;;19.38;43.99
57086;BME280;42964;42.910;23.792;2023-04-25T09:50:23;96717.94;;;19.62;43.39
57086;BME280;42964;42.910;23.792;2023-04-25T09:55:24;96713.88;;;19.88;42.48
57086;BME280;42964;42.910;23.792;2023-04-25T10:00:23;96706.94;;;19.87;43.16
57086;BME280;42964;42.910;23.792;2023-04-25T10:05:23;96696.22;;;20.06;42.42
57086;BME280;42964;42.910;23.792;2023-04-25T10:10:24;96669.13;;;20.04;43.49
57086;BME280;42964;42.910;23.792;2023-04-25T10:15:26;96701.56;;;20.04;43.97
57086;BME280;42964;42.910;23.792;2023-04-25T10:20:25;96697.75;;;19.78;44.87
57086;BME280;42964;42.910;23.792;2023-04-25T10:25:24;96702.19;;;19.44;44.83
57086;BME280;42964;42.910;23.792;2023-04-25T10:30:24;96684.34;;;19.00;45.97
57086;BME280;42964;42.910;23.792;2023-04-25T10:35:30;96662.09;;;18.90;46.72
57086;BME280;42964;42.910;23.792;2023-04-25T10:40:29;96654.16;;;19.08;45.92
57086;BME280;42964;42.910;23.792;2023-04-25T10:45:28;96638.69;;;19.35;43.51
57086;BME280;42964;42.910;23.792;2023-04-25T10:50:37;96621.50;;;19.77;43.05
57086;BME280;42964;42.910;23.792;2023-04-25T10:55:52;96604.75;;;20.10;42.40
57086;BME280;42964;42.910;23.792;2023-04-25T11:00:53;96631.44;;;20.34;41.68
57086;BME280;42964;42.910;23.792;2023-04-25T11:05:52;96645.44;;;19.88;40.04
57086;BME280;42964;42.910;23.792;2023-04-25T11:10:52;96687.41;;;19.09;46.80
57086;BME280;42964;42.910;23.792;2023-04-25T11:15:51;96666.19;;;18.07;53.09
57086;BME280;42964;42.910;23.792;2023-04-25T11:20:50;96688.22;;;17.67;56.91
57086;BME280;42964;42.910;23.792;2023-04-25T11:25:49;96704.16;;;17.43;58.49
57086;BME280;42964;42.910;23.792;2023-04-25T11:30:49;96669.06;;;17.46;60.03
57086;BME280;42964;42.910;23.792;2023-04-25T11:35:54;96702.09;;;18.07;59.07
57086;BME280;42964;42.910;23.792;2023-04-25T11:40:56;96693.19;;;18.28;56.26
57086;BME280;42964;42.910;23.792;2023-04-25T11:45:55;96676.00;;;18.57;54.69
57086;BME280;42964;42.910;23.792;2023-04-25T11:50:54;96666.69;;;19.02;51.65
57086;BME280;42964;42.910;23.792;2023-04-25T11:55:53;96639.44;;;19.21;46.78
57086;BME280;42964;42.910;23.792;2023-04-25T12:00:53;96650.31;;;19.31;47.55
57086;BME280;42964;42.910;23.792;2023-04-25T12:05:52;96630.00;;;19.66;50.25
57086;BME280;42964;42.910;23.792;2023-04-25T12:10:50;96599.84;;;20.18;46.69
57086;BME280;42964;42.910;23.792;2023-04-25T12:15:50;96589.84;;;20.39;46.95
57086;BME280;42964;42.910;23.792;2023-04-25T12:20:49;96587.94;;;20.42;44.68
57086;BME280;42964;42.910;23.792;2023-04-25T12:25:48;96593.66;;;20.49;42.69
57086;BME280;42964;42.910;23.792;2023-04-25T12:31:03;96600.38;;;20.69;41.10
57086;BME280;42964;42.910;23.792;2023-04-25T12:36:04;96600.50;;;21.10;41.42
57086;BME280;42964;42.910;23.792;2023-04-25T12:41:07;96603.50;;;20.76;38.64
57086;BME280;42964;42.910;23.792;2023-04-25T12:46:07;96628.88;;;19.86;40.22
57086;BME280;42964;42.910;23.792;2023-04-25T12:51:06;96646.97;;;18.07;46.72
57086;BME280;42964;42.910;23.792;2023-04-25T12:56:05;96642.28;;;16.79;48.74
57086;BME280;42964;42.910;23.792;2023-04-25T13:01:05;96664.56;;;16.28;50.60
57086;BME280;42964;42.910;23.792;2023-04-25T13:06:05;96678.97;;;15.94;53.39
57086;BME280;42964;42.910;23.792;2023-04-25T13:11:06;96705.47;;;15.39;54.70
57086;BME280;42964;42.910;23.792;2023-04-25T13:16:05;96716.28;;;14.80;55.88
57086;BME280;42964;42.910;23.792;2023-04-25T13:21:04;96748.75;;;14.45;59.97
57086;BME280;42964;42.910;23.792;2023-04-25T13:26:03;96755.25;;;14.05;67.15
57086;BME280;42964;42.910;23.792;2023-04-25T13:31:02;96734.09;;;13.86;68.19
57086;BME280;42964;42.910;23.792;2023-04-25T13:36:01;96729.34;;;14.27;72.51
57086;BME280;42964;42.910;23.792;2023-04-25T13:41:00;96742.66;;;14.72;74.41
57086;BME280;42964;42.910;23.792;2023-04-25T13:45:59;96729.34;;;15.05;74.24
57086;BME280;42964;42.910;23.792;2023-04-25T13:50:58;96723.69;;;15.41;72.40
57086;BME280;42964;42.910;23.792;2023-04-25T13:55:57;96699.38;;;15.86;69.36
57086;BME280;42964;42.910;23.792;2023-04-25T14:00:56;96693.81;;;16.16;67.48
57086;BME280;42964;42.910;23.792;2023-04-25T14:05:55;96692.97;;;16.58;67.15
57086;BME280;42964;42.910;23.792;2023-04-25T14:10:54;96691.22;;;16.79;62.95
57086;BME280;42964;42.910;23.792;2023-04-25T14:15:53;96685.56;;;16.89;62.76
57086;BME280;42964;42.910;23.792;2023-04-25T14:20:53;96684.25;;;17.19;61.53
57086;BME280;42964;42.910;23.792;2023-04-25T14:25:52;96644.31;;;17.13;58.96
57086;BME280;42964;42.910;23.792;2023-04-25T14:30:51;96682.38;;;17.41;55.56
57086;BME280;42964;42.910;23.792;2023-04-25T14:35:50;96666.72;;;17.40;54.53
57086;BME280;42964;42.910;23.792;2023-04-25T14:40:49;96679.56;;;17.46;54.84
57086;BME280;42964;42.910;23.792;2023-04-25T14:45:48;96659.81;;;17.18;54.33
57086;BME280;42964;42.910;23.792;2023-04-25T14:50:47;96676.88;;;17.08;54.55
57086;BME280;42964;42.910;23.792;2023-04-25T14:55:46;96664.00;;;16.83;57.26
57086;BME280;42964;42.910;23.792;2023-04-25T15:00:46;96651.19;;;16.34;60.06
57086;BME280;42964;42.910;23.792;2023-04-25T15:05:45;96654.53;;;15.95;60.92
57086;BME280;42964;42.910;23.792;2023-04-25T15:10:46;96633.09;;;16.07;59.90
57086;BME280;42964;42.910;23.792;2023-04-25T15:15:45;96630.88;;;15.98;59.55
57086;BME280;42964;42.910;23.792;2023-04-25T15:20:50;96635.66;;;15.87;60.54
57086;BME280;42964;42.910;23.792;2023-04-25T15:25:50;96640.03;;;15.41;58.55
57086;BME280;42964;42.910;23.792;2023-04-25T15:30:49;96644.91;;;15.04;65.15
57086;BME280;42964;42.910;23.792;2023-04-25T15:35:49;96635.97;;;14.87;67.35
57086;BME280;42964;42.910;23.792;2023-04-25T15:40:48;96642.34;;;14.78;69.51
57086;BME280;42964;42.910;23.792;2023-04-25T15:45:47;96632.09;;;14.73;70.37
57086;BME280;42964;42.910;23.792;2023-04-25T15:50:45;96618.16;;;14.73;69.88
57086;BME280;42964;42.910;23.792;2023-04-25T15:55:44;96622.41;;;15.00;69.62
57086;BME280;42964;42.910;23.792;2023-04-25T16:00:44;96495.53;;;14.46;67.28
57086;BME280;42964;42.910;23.792;2023-04-25T16:05:46;96634.31;;;15.31;66.38
57086;BME280;42964;42.910;23.792;2023-04-25T16:10:45;96628.81;;;15.39;65.88
57086;BME280;42964;42.910;23.792;2023-04-25T16:15:44;96639.38;;;15.36;64.07
57086;BME280;42964;42.910;23.792;2023-04-25T16:20:43;96635.63;;;14.96;65.75
57086;BME280;42964;42.910;23.792;2023-04-25T16:25:42;96631.63;;;14.35;74.40
57086;BME280;42964;42.910;23.792;2023-04-25T16:30:42;96615.19;;;14.07;79.13
57086;BME280;42964;42.910;23.792;2023-04-25T16:35:40;96627.13;;;13.87;81.83
57086;BME280;42964;42.910;23.792;2023-04-25T16:40:39;96648.69;;;13.66;83.47
57086;BME280;42964;42.910;23.792;2023-04-25T16:45:38;96637.91;;;13.47;84.89
57086;BME280;42964;42.910;23.792;2023-04-25T16:50:37;96643.94;;;13.49;86.77
57086;BME280;42964;42.910;23.792;2023-04-25T16:55:36;96648.06;;;13.57;88.31
57086;BME280;42964;42.910;23.792;2023-04-25T17:00:35;96654.22;;;13.53;88.94
57086;BME280;42964;42.910;23.792;2023-04-25T17:05:34;96666.44;;;13.51;89.39
57086;BME280;42964;42.910;23.792;2023-04-25T17:10:33;96661.19;;;13.54;90.37
57086;BME280;42964;42.910;23.792;2023-04-25T17:15:32;96670.66;;;13.57;90.62
57086;BME280;42964;42.910;23.792;2023-04-25T17:20:31;96675.91;;;13.55;91.02
57086;BME280;42964;42.910;23.792;2023-04-25T17:25:30;96670.69;;;13.55;91.23
57086;BME280;42964;42.910;23.792;2023-04-25T17:30:30;96676.72;;;13.57;91.21
57086;BME280;42964;42.910;23.792;2023-04-25T17:35:29;96676.88;;;13.51;91.05
57086;BME280;42964;42.910;23.792;2023-04-25T17:40:29;96684.09;;;13.42;90.40
57086;BME280;42964;42.910;23.792;2023-04-25T17:45:28;96698.34;;;13.30;90.26
57086;BME280;42964;42.910;23.792;2023-04-25T17:50:32;96705.53;;;13.22;90.96
57086;BME280;42964;42.910;23.792;2023-04-25T17:55:30;96707.34;;;13.20;91.92
57086;BME280;42964;42.910;23.792;2023-04-25T18:00:29;96722.97;;;13.20;92.33
57086;BME280;42964;42.910;23.792;2023-04-25T18:05:31;96721.22;;;13.19;92.95
57086;BME280;42964;42.910;23.792;2023-04-25T18:10:30;96736.25;;;13.10;92.66
57086;BME280;42964;42.910;23.792;2023-04-25T18:15:31;96746.28;;;12.93;92.93
57086;BME280;42964;42.910;23.792;2023-04-25T18:20:30;96751.84;;;12.79;93.25
57086;BME280;42964;42.910;23.792;2023-04-25T18:25:29;96767.56;;;12.75;92.91
57086;BME280;42964;42.910;23.792;2023-04-25T18:30:28;96769.41;;;12.69;92.80
57086;BME280;42964;42.910;23.792;2023-04-25T18:35:27;96770.34;;;12.67;92.42
57086;BME280;42964;42.910;23.792;2023-04-25T18:40:26;96770.19;;;12.75;92.97
57086;BME280;42964;42.910;23.792;2023-04-25T18:45:25;96778.72;;;12.80;92.73
57086;BME280;42964;42.910;23.792;2023-04-25T18:50:24;96778.50;;;12.87;92.61
57086;BME280;42964;42.910;23.792;2023-04-25T18:55:24;96782.28;;;12.76;92.05
57086;BME280;42964;42.910;23.792;2023-04-25T19:00:23;96781.34;;;12.78;93.16
57086;BME280;42964;42.910;23.792;2023-04-25T19:05:22;96776.00;;;12.84;93.49
57086;BME280;42964;42.910;23.792;2023-04-25T19:10:21;96778.47;;;12.89;93.66
57086;BME280;42964;42.910;23.792;2023-04-25T19:15:20;96778.41;;;12.92;93.72
57086;BME280;42964;42.910;23.792;2023-04-25T19:20:19;96784.53;;;12.89;93.84
57086;BME280;42964;42.910;23.792;2023-04-25T19:25:18;96775.88;;;12.89;93.98
57086;BME280;42964;42.910;23.792;2023-04-25T19:30:17;96774.25;;;12.85;93.43
57086;BME280;42964;42.910;23.792;2023-04-25T19:35:16;96778.00;;;12.75;93.29
57086;BME280;42964;42.910;23.792;2023-04-25T19:40:17;96788.53;;;12.68;93.53
57086;BME280;42964;42.910;23.792;2023-04-25T19:45:17;96753.81;;;12.35;93.14
57086;BME280;42964;42.910;23.792;2023-04-25T19:50:16;96789.00;;;12.50;93.31
57086;BME280;42964;42.910;23.792;2023-04-25T19:55:15;96784.00;;;12.41;93.93
57086;BME280;42964;42.910;23.792;2023-04-25T20:00:15;96776.16;;;12.42;94.04
57086;BME280;42964;42.910;23.792;2023-04-25T20:05:16;96729.13;;;12.14;94.04
57086;BME280;42964;42.910;23.792;2023-04-25T20:10:15;96781.41;;;12.41;94.24
57086;BME280;42964;42.910;23.792;2023-04-25T20:15:15;96776.19;;;12.41;94.13
57086;BME280;42964;42.910;23.792;2023-04-25T20:20:14;96773.59;;;12.41;94.31
57086;BME280;42964;42.910;23.792;2023-04-25T20:25:15;96770.38;;;12.29;94.17
57086;BME280;42964;42.910;23.792;2023-04-25T20:30:14;96770.66;;;12.17;94.34
57086;BME280;42964;42.910;23.792;2023-04-25T20:35:14;96769.91;;;12.12;94.27
57086;BME280;42964;42.910;23.792;2023-04-25T20:40:12;96771.81;;;12.04;94.00
57086;BME280;42964;42.910;23.792;2023-04-25T20:45:11;96771.91;;;11.99;94.27
57086;BME280;42964;42.910;23.792;2023-04-25T20:50:10;96773.84;;;11.91;93.61
57086;BME280;42964;42.910;23.792;2023-04-25T20:55:10;96769.31;;;11.60;94.21
57086;BME280;42964;42.910;23.792;2023-04-25T21:00:09;96767.94;;;11.42;94.23
57086;BME280;42964;42.910;23.792;2023-04-25T21:05:16;96762.88;;;11.36;94.49
57086;BME280;42964;42.910;23.792;2023-04-25T21:10:18;96755.28;;;11.27;93.75
57086;BME280;42964;42.910;23.792;2023-04-25T21:15:17;96707.47;;;10.92;93.68
57086;BME280;42964;42.910;23.792;2023-04-25T21:20:20;96760.69;;;11.15;93.65
57086;BME280;42964;42.910;23.792;2023-04-25T21:25:22;96778.94;;;11.10;93.17
57086;BME280;42964;42.910;23.792;2023-04-25T21:30:23;96790.50;;;10.94;94.17
57086;BME280;42964;42.910;23.792;2023-04-25T21:35:23;96789.00;;;10.79;94.41
57086;BME280;42964;42.910;23.792;2023-04-25T21:40:22;96774.50;;;10.67;94.09
57086;BME280;42964;42.910;23.792;2023-04-25T21:45:21;96782.28;;;10.69;94.27
57086;BME280;42964;42.910;23.792;2023-04-25T21:50:20;96790.00;;;10.70;94.70
57086;BME280;42964;42.910;23.792;2023-04-25T21:55:20;96780.44;;;10.74;94.79
57086;BME280;42964;42.910;23.792;2023-04-25T22:00:19;96764.94;;;10.71;93.81
57086;BME280;42964;42.910;23.792;2023-04-25T22:05:22;96773.44;;;10.79;94.45
57086;BME280;42964;42.910;23.792;2023-04-25T22:10:24;96768.25;;;10.79;93.63
57086;BME280;42964;42.910;23.792;2023-04-25T22:15:23;96778.56;;;10.82;95.24
57086;BME280;42964;42.910;23.792;2023-04-25T22:20:22;96778.63;;;10.79;94.28
57086;BME280;42964;42.910;23.792;2023-04-25T22:25:25;96781.53;;;10.60;95.17
57086;BME280;42964;42.910;23.792;2023-04-25T22:30:24;96772.81;;;10.66;94.49
57086;BME280;42964;42.910;23.792;2023-04-25T22:35:23;96773.56;;;10.71;94.62
57086;BME280;42964;42.910;23.792;2023-04-25T22:40:22;96775.25;;;10.74;95.21
57086;BME280;42964;42.910;23.792;2023-04-25T22:45:21;96773.44;;;10.79;94.06
57086;BME280;42964;42.910;23.792;2023-04-25T22:50:20;96771.66;;;10.81;94.81
57086;BME280;42964;42.910;23.792;2023-04-25T22:55:19;96769.91;;;10.81;94.77
57086;BME280;42964;42.910;23.792;2023-04-25T23:00:19;96761.28;;;10.81;94.88
57086;BME280;42964;42.910;23.792;2023-04-25T23:05:19;96764.06;;;10.70;95.28
57086;BME280;42964;42.910;23.792;2023-04-25T23:10:18;96711.81;;;10.42;95.73
57086;BME280;42964;42.910;23.792;2023-04-25T23:15:17;96748.56;;;10.67;95.08
57086;BME280;42964;42.910;23.792;2023-04-25T23:20:17;96739.91;;;10.67;94.61
57086;BME280;42964;42.910;23.792;2023-04-25T23:25:16;96716.88;;;10.50;95.12
57086;BME280;42964;42.910;23.792;2023-04-25T23:30:16;96735.91;;;10.49;95.10
57086;BME280;42964;42.910;23.792;2023-04-25T23:35:14;96740.44;;;10.36;95.58
57086;BME280;42964;42.910;23.792;2023-04-25T23:40:13;96738.03;;;10.24;95.94
57086;BME280;42964;42.910;23.792;2023-04-25T23:45:12;96748.56;;;10.14;96.51
57086;BME280;42964;42.910;23.792;2023-04-25T23:50:14;96729.03;;;9.93;96.90
57086;BME280;42964;42.910;23.792;2023-04-25T23:55:13;96738.44;;;9.99;96.49
